This is the latest recevied weather packets stored in our database for station/object AI5BL. If no packets are shown the sender has not sent any weather packets the latest 10 day(s).
| Time | Temp. | Humidity | Pressure | Rain* | Wind** | Luminosity | Snow |
|---|---|---|---|---|---|---|---|
| 1778146136 | 21.11° C | 99% | 1013 hPa | 0 mm | - | 0 W/m² | - |
| 1778145832 | 21.11° C | 99% | 1013.1 hPa | 0 mm | - | 0 W/m² | - |
| 1778145528 | 21.11° C | 99% | 1013.2 hPa | 0 mm | - | 0 W/m² | - |
| 1778145225 | 21.67° C | 99% | 1012.6 hPa | 0 mm | - | 0 W/m² | - |
| 1778144921 | 21.67° C | 99% | 1012.6 hPa | 0 mm | - | 0 W/m² | - |
| 1778144617 | 21.67° C | 99% | 1012.5 hPa | 0 mm | - | 0 W/m² | - |
| 1778144314 | 21.67° C | 99% | 1012.2 hPa | 0 mm | - | 0 W/m² | - |
| 1778144011 | 21.67° C | 99% | 1012.4 hPa | 0 mm | - | 0 W/m² | - |
| 1778143708 | 21.67° C | 99% | 1012.3 hPa | 0 mm | - | 0 W/m² | - |
| 1778143405 | 21.67° C | 99% | 1012.4 hPa | 3.56 mm | - | 0 W/m² | - |
| 1778143102 | 21.67° C | 99% | 1012.2 hPa | 3.56 mm | - | 0 W/m² | - |
| 1778136429 | 22.78° C | 99% | 1012.9 hPa | 0 mm | - | 0 W/m² | - |
| 1778136128 | 22.78° C | 99% | 1012.8 hPa | 0 mm | - | 0 W/m² | - |
| 1778135825 | 22.78° C | 99% | 1012.4 hPa | 0 mm | - | 0 W/m² | - |
| 1778135521 | 22.78° C | 99% | 1012.5 hPa | 0 mm | - | 0 W/m² | - |
| 1778135219 | 22.78° C | 99% | 1012.5 hPa | 0 mm | - | 0 W/m² | - |
| 1778134916 | 22.78° C | 99% | 1012.8 hPa | 0 mm | - | 0 W/m² | - |
| 1778134614 | 22.78° C | 99% | 1012.6 hPa | 0 mm | - | 0 W/m² | - |
| 1778134312 | 22.78° C | 99% | 1012.7 hPa | 0 mm | - | 0 W/m² | - |
| 1778134010 | 22.78° C | 99% | 1012.8 hPa | 0 mm | - | 0 W/m² | - |
| 1778133706 | 22.78° C | 99% | 1013 hPa | 0 mm | - | 0 W/m² | - |
| 1778133401 | 22.78° C | 99% | 1012.6 hPa | 0 mm | - | 0 W/m² | - |
| 1778133098 | 22.78° C | 99% | 1012.3 hPa | 1.27 mm | - | 0 W/m² | - |
| 1778132793 | 22.22° C | 99% | 1011.8 hPa | 4.32 mm | - | 0 W/m² | - |
| 1778132491 | 22.22° C | 99% | 1012.1 hPa | 3.05 mm | - | 0 W/m² | - |
* Rain latest hour (hover to see other rain measurements)
** Current wind speed in m/s (hover to see current wind gust speed)